Airport ID:KO69
Update Time (UTC):20/08/2019 23:50
Wind Speed (Knots):10
Wind Direction (Magnetic):280
Temperature (°C):22
Dew Point (°C):15
Humidity (%):64
Altimeter (inHg):30
Density Altitude (Feet):
Visibility (Miles):9
Clouds (Hundreds of feet):CLR
Present Weather:
METAR:METAR KO69 202350Z AUTO 30009G17KT 270V330 9SM CLR 22/15 A3000 RMK A01

The data displayed is for advisory purposes only and is not to be used for flight planning or operations.

This page is not automatically refreshed. Reload the page to see current data.